Aviation Digital Data Service (ADDS)

Output produced by METARs form (1158 UTC 26 March 2019)
found at http://www.aviationweather.gov/metar/data/
 
METAR text: SBCT 261100Z 12008KT 9000 BKN005 BKN009 17/17 Q1021
Conditions at: SBCT (CURITIBA/AFONSO , BR) observed 1100 UTC 26 March 2019
Temperature: 17.0°C (63°F)
Dewpoint: 17.0°C (63°F) [RH = 100%]
Pressure (altimeter): 30.15 inches Hg (1021.0 mb)
Winds: from the ESE (120 degrees) at 9 MPH (8 knots; 4.1 m/s)
Visibility: 6 miles ( 9 km)
Ceiling: 500 feet AGL
Clouds: broken clouds at 500 feet AGL
broken clouds at 900 feet AGL
Weather: no significant weather observed at this time

METAR text: SBCT 261035Z 11009KT 7000 BKN005 BKN009 17/17 Q1020
Conditions at: SBCT (CURITIBA/AFONSO , BR) observed 1035 UTC 26 March 2019
Temperature: 17.0°C (63°F)
Dewpoint: 17.0°C (63°F) [RH = 100%]
Pressure (altimeter): 30.12 inches Hg (1020.0 mb)
Winds: from the ESE (110 degrees) at 10 MPH (9 knots; 4.6 m/s)
Visibility: 4 miles ( 7 km)
Ceiling: 500 feet AGL
Clouds: broken clouds at 500 feet AGL
broken clouds at 900 feet AGL
Weather: no significant weather observed at this time

METAR text: SBCT 261000Z 11007KT 4000 -DZ BR SCT003 OVC005 17/17 Q1020
Conditions at: SBCT (CURITIBA/AFONSO , BR) observed 1000 UTC 26 March 2019
Temperature: 17.0°C (63°F)
Dewpoint: 17.0°C (63°F) [RH = 100%]
Pressure (altimeter): 30.12 inches Hg (1020.0 mb)
Winds: from the ESE (110 degrees) at 8 MPH (7 knots; 3.6 m/s)
Visibility: 2.49 miles (4.01 km)
Ceiling: 500 feet AGL
Clouds: scattered clouds at 300 feet AGL
overcast cloud deck at 500 feet AGL
Weather: -DZ BR  (light drizzle, mist)

METAR text: SBCT 260900Z 11009KT 7000 OVC005 17/17 Q1020
Conditions at: SBCT (CURITIBA/AFONSO , BR) observed 0900 UTC 26 March 2019
Temperature: 17.0°C (63°F)
Dewpoint: 17.0°C (63°F) [RH = 100%]
Pressure (altimeter): 30.12 inches Hg (1020.0 mb)
Winds: from the ESE (110 degrees) at 10 MPH (9 knots; 4.6 m/s)
Visibility: 4 miles ( 7 km)
Ceiling: 500 feet AGL
Clouds: overcast cloud deck at 500 feet AGL
Weather: no significant weather observed at this time

METAR text: SBCT 260800Z 11008KT 9999 OVC006 18/17 Q1019
Conditions at: SBCT (CURITIBA/AFONSO , BR) observed 0800 UTC 26 March 2019
Temperature: 18.0°C (64°F)
Dewpoint: 17.0°C (63°F) [RH = 94%]
Pressure (altimeter): 30.09 inches Hg (1019.0 mb)
Winds: from the ESE (110 degrees) at 9 MPH (8 knots; 4.1 m/s)
Visibility: 6 or more miles (10+ km)
Ceiling: 600 feet AGL
Clouds: overcast cloud deck at 600 feet AGL
Weather: no significant weather observed at this time

METAR text: SBCT 260700Z 11008KT 9999 BKN006 BKN011 19/18 Q1018
Conditions at: SBCT (CURITIBA/AFONSO , BR) observed 0700 UTC 26 March 2019
Temperature: 19.0°C (66°F)
Dewpoint: 18.0°C (64°F) [RH = 94%]
Pressure (altimeter): 30.06 inches Hg (1018.0 mb)
Winds: from the ESE (110 degrees) at 9 MPH (8 knots; 4.1 m/s)
Visibility: 6 or more miles (10+ km)
Ceiling: 600 feet AGL
Clouds: broken clouds at 600 feet AGL
broken clouds at 1100 feet AGL
Weather: no significant weather observed at this time

METAR text: SBCT 260600Z 11007KT 9999 OVC004 19/19 Q1019
Conditions at: SBCT (CURITIBA/AFONSO , BR) observed 0600 UTC 26 March 2019
Temperature: 19.0°C (66°F)
Dewpoint: 19.0°C (66°F) [RH = 100%]
Pressure (altimeter): 30.09 inches Hg (1019.0 mb)
Winds: from the ESE (110 degrees) at 8 MPH (7 knots; 3.6 m/s)
Visibility: 6 or more miles (10+ km)
Ceiling: 400 feet AGL
Clouds: overcast cloud deck at 400 feet AGL
Weather: no significant weather observed at this time

METAR text: SBCT 260500Z 11008KT 9999 OVC003 19/19 Q1019
Conditions at: SBCT (CURITIBA/AFONSO , BR) observed 0500 UTC 26 March 2019
Temperature: 19.0°C (66°F)
Dewpoint: 19.0°C (66°F) [RH = 100%]
Pressure (altimeter): 30.09 inches Hg (1019.0 mb)
Winds: from the ESE (110 degrees) at 9 MPH (8 knots; 4.1 m/s)
Visibility: 6 or more miles (10+ km)
Ceiling: 300 feet AGL
Clouds: overcast cloud deck at 300 feet AGL
Weather: no significant weather observed at this time

METAR text: SBCT 260400Z 10007KT 9999 OVC005 20/19 Q1019
Conditions at: SBCT (CURITIBA/AFONSO , BR) observed 0400 UTC 26 March 2019
Temperature: 20.0°C (68°F)
Dewpoint: 19.0°C (66°F) [RH = 94%]
Pressure (altimeter): 30.09 inches Hg (1019.0 mb)
Winds: from the E (100 degrees) at 8 MPH (7 knots; 3.6 m/s)
Visibility: 6 or more miles (10+ km)
Ceiling: 500 feet AGL
Clouds: overcast cloud deck at 500 feet AGL
Weather: no significant weather observed at this time

METAR text: SBCT 260300Z 11009KT 9999 OVC006 20/19 Q1019
Conditions at: SBCT (CURITIBA/AFONSO , BR) observed 0300 UTC 26 March 2019
Temperature: 20.0°C (68°F)
Dewpoint: 19.0°C (66°F) [RH = 94%]
Pressure (altimeter): 30.09 inches Hg (1019.0 mb)
Winds: from the ESE (110 degrees) at 10 MPH (9 knots; 4.6 m/s)
Visibility: 6 or more miles (10+ km)
Ceiling: 600 feet AGL
Clouds: overcast cloud deck at 600 feet AGL
Weather: no significant weather observed at this time

METAR text: SBCT 260200Z 08003KT 9999 OVC008 20/19 Q1019
Conditions at: SBCT (CURITIBA/AFONSO , BR) observed 0200 UTC 26 March 2019
Temperature: 20.0°C (68°F)
Dewpoint: 19.0°C (66°F) [RH = 94%]
Pressure (altimeter): 30.09 inches Hg (1019.0 mb)
Winds: from the E (80 degrees) at 3 MPH (3 knots; 1.5 m/s)
Visibility: 6 or more miles (10+ km)
Ceiling: 800 feet AGL
Clouds: overcast cloud deck at 800 feet AGL
Weather: no significant weather observed at this time

METAR text: SBCT 260100Z 11006KT 9999 BKN012 BKN063 20/19 Q1019
Conditions at: SBCT (CURITIBA/AFONSO , BR) observed 0100 UTC 26 March 2019
Temperature: 20.0°C (68°F)
Dewpoint: 19.0°C (66°F) [RH = 94%]
Pressure (altimeter): 30.09 inches Hg (1019.0 mb)
Winds: from the ESE (110 degrees) at 7 MPH (6 knots; 3.1 m/s)
Visibility: 6 or more miles (10+ km)
Ceiling: 1200 feet AGL
Clouds: broken clouds at 1200 feet AGL
broken clouds at 6300 feet AGL
Weather: no significant weather observed at this time

METAR text: SBCT 260000Z 11007KT 9999 BKN006 20/18 Q1019
Conditions at: SBCT (CURITIBA/AFONSO , BR) observed 0000 UTC 26 March 2019
Temperature: 20.0°C (68°F)
Dewpoint: 18.0°C (64°F) [RH = 88%]
Pressure (altimeter): 30.09 inches Hg (1019.0 mb)
Winds: from the ESE (110 degrees) at 8 MPH (7 knots; 3.6 m/s)
Visibility: 6 or more miles (10+ km)
Ceiling: 600 feet AGL
Clouds: broken clouds at 600 feet AGL
Weather: no significant weather observed at this time

METAR text: SBCT 252300Z 11007KT 9999 BKN008 20/18 Q1018
Conditions at: SBCT (CURITIBA/AFONSO , BR) observed 2300 UTC 25 March 2019
Temperature: 20.0°C (68°F)
Dewpoint: 18.0°C (64°F) [RH = 88%]
Pressure (altimeter): 30.06 inches Hg (1018.0 mb)
Winds: from the ESE (110 degrees) at 8 MPH (7 knots; 3.6 m/s)
Visibility: 6 or more miles (10+ km)
Ceiling: 800 feet AGL
Clouds: broken clouds at 800 feet AGL
Weather: no significant weather observed at this time

METAR text: SBCT 252219Z 11005KT 9999 BKN008 21/20 Q1018
Conditions at: SBCT (CURITIBA/AFONSO , BR) observed 2219 UTC 25 March 2019
Temperature: 21.0°C (70°F)
Dewpoint: 20.0°C (68°F) [RH = 94%]
Pressure (altimeter): 30.06 inches Hg (1018.0 mb)
Winds: from the ESE (110 degrees) at 6 MPH (5 knots; 2.6 m/s)
Visibility: 6 or more miles (10+ km)
Ceiling: 800 feet AGL
Clouds: broken clouds at 800 feet AGL
Weather: no significant weather observed at this time

METAR text: SBCT 252200Z 11007KT 9999 SCT008 SCT030 21/20 Q1017
Conditions at: SBCT (CURITIBA/AFONSO , BR) observed 2200 UTC 25 March 2019
Temperature: 21.0°C (70°F)
Dewpoint: 20.0°C (68°F) [RH = 94%]
Pressure (altimeter): 30.03 inches Hg (1017.0 mb)
Winds: from the ESE (110 degrees) at 8 MPH (7 knots; 3.6 m/s)
Visibility: 6 or more miles (10+ km)
Ceiling: at least 12,000 feet AGL
Clouds: scattered clouds at 800 feet AGL
scattered clouds at 3000 feet AGL
Weather: no significant weather observed at this time

METAR text: SBCT 252100Z 11008KT 9999 SCT045 SCT070 22/20 Q1017
Conditions at: SBCT (CURITIBA/AFONSO , BR) observed 2100 UTC 25 March 2019
Temperature: 22.0°C (72°F)
Dewpoint: 20.0°C (68°F) [RH = 88%]
Pressure (altimeter): 30.03 inches Hg (1017.0 mb)
Winds: from the ESE (110 degrees) at 9 MPH (8 knots; 4.1 m/s)
Visibility: 6 or more miles (10+ km)
Ceiling: at least 12,000 feet AGL
Clouds: scattered clouds at 4500 feet AGL
scattered clouds at 7000 feet AGL
Weather: no significant weather observed at this time

METAR text: SBCT 252000Z 10007KT 9999 SCT045 FEW050TCU SCT070 25/21 Q1016
Conditions at: SBCT (CURITIBA/AFONSO , BR) observed 2000 UTC 25 March 2019
Temperature: 25.0°C (77°F)
Dewpoint: 21.0°C (70°F) [RH = 79%]
Pressure (altimeter): 30.00 inches Hg (1016.0 mb)
Winds: from the E (100 degrees) at 8 MPH (7 knots; 3.6 m/s)
Visibility: 6 or more miles (10+ km)
Ceiling: at least 12,000 feet AGL
Clouds: scattered clouds at 4500 feet AGL
few clouds at 5000 feet AGL
scattered clouds at 7000 feet AGL
Weather: no significant weather observed at this time

METAR text: SBCT 251900Z 20007KT 9999 BKN049 FEW050TCU 28/12 Q1016
Conditions at: SBCT (CURITIBA/AFONSO , BR) observed 1900 UTC 25 March 2019
Temperature: 28.0°C (82°F)
Dewpoint: 12.0°C (54°F) [RH = 37%]
Pressure (altimeter): 30.00 inches Hg (1016.0 mb)
Winds: from the SSW (200 degrees) at 8 MPH (7 knots; 3.6 m/s)
Visibility: 6 or more miles (10+ km)
Ceiling: 4900 feet AGL
Clouds: broken clouds at 4900 feet AGL
few clouds at 5000 feet AGL
Weather: no significant weather observed at this time

METAR text: SBCT 251800Z 19006KT 9999 BKN045 FEW050TCU 28/14 Q1016
Conditions at: SBCT (CURITIBA/AFONSO , BR) observed 1800 UTC 25 March 2019
Temperature: 28.0°C (82°F)
Dewpoint: 14.0°C (57°F) [RH = 42%]
Pressure (altimeter): 30.00 inches Hg (1016.0 mb)
Winds: from the S (190 degrees) at 7 MPH (6 knots; 3.1 m/s)
Visibility: 6 or more miles (10+ km)
Ceiling: 4500 feet AGL
Clouds: broken clouds at 4500 feet AGL
few clouds at 5000 feet AGL
Weather: no significant weather observed at this time

METAR text: SBCT 251700Z 25006KT 200V310 9999 SCT045 29/15 Q1016
Conditions at: SBCT (CURITIBA/AFONSO , BR) observed 1700 UTC 25 March 2019
Temperature: 29.0°C (84°F)
Dewpoint: 15.0°C (59°F) [RH = 43%]
Pressure (altimeter): 30.00 inches Hg (1016.0 mb)
Winds: from the WSW (250 degrees) at 7 MPH (6 knots; 3.1 m/s)
Visibility: 6 or more miles (10+ km)
Ceiling: at least 12,000 feet AGL
Clouds: scattered clouds at 4500 feet AGL
Weather: no significant weather observed at this time

METAR text: SBCT 251600Z 27005KT 220V330 9999 SCT045 29/14 Q1017
Conditions at: SBCT (CURITIBA/AFONSO , BR) observed 1600 UTC 25 March 2019
Temperature: 29.0°C (84°F)
Dewpoint: 14.0°C (57°F) [RH = 40%]
Pressure (altimeter): 30.03 inches Hg (1017.0 mb)
Winds: from the W (270 degrees) at 6 MPH (5 knots; 2.6 m/s)
Visibility: 6 or more miles (10+ km)
Ceiling: at least 12,000 feet AGL
Clouds: scattered clouds at 4500 feet AGL
Weather: no significant weather observed at this time

METAR text: SBCT 251500Z 31005KT 230V020 9999 SCT040 28/16 Q1018
Conditions at: SBCT (CURITIBA/AFONSO , BR) observed 1500 UTC 25 March 2019
Temperature: 28.0°C (82°F)
Dewpoint: 16.0°C (61°F) [RH = 48%]
Pressure (altimeter): 30.06 inches Hg (1018.0 mb)
Winds: from the NW (310 degrees) at 6 MPH (5 knots; 2.6 m/s)
Visibility: 6 or more miles (10+ km)
Ceiling: at least 12,000 feet AGL
Clouds: scattered clouds at 4000 feet AGL
Weather: no significant weather observed at this time

METAR text: SBCT 251400Z 32006KT 250V010 9999 FEW030 26/17 Q1019
Conditions at: SBCT (CURITIBA/AFONSO , BR) observed 1400 UTC 25 March 2019
Temperature: 26.0°C (79°F)
Dewpoint: 17.0°C (63°F) [RH = 58%]
Pressure (altimeter): 30.09 inches Hg (1019.0 mb)
Winds: from the NW (320 degrees) at 7 MPH (6 knots; 3.1 m/s)
Visibility: 6 or more miles (10+ km)
Ceiling: at least 12,000 feet AGL
Clouds: few clouds at 3000 feet AGL
Weather: no significant weather observed at this time

METAR text: SBCT 251300Z VRB02KT 9999 FEW028 25/18 Q1019
Conditions at: SBCT (CURITIBA/AFONSO , BR) observed 1300 UTC 25 March 2019
Temperature: 25.0°C (77°F)
Dewpoint: 18.0°C (64°F) [RH = 65%]
Pressure (altimeter): 30.09 inches Hg (1019.0 mb)
Winds: variable direction winds at 2 MPH (2 knots; 1.0 m/s)
Visibility: 6 or more miles (10+ km)
Ceiling: at least 12,000 feet AGL
Clouds: few clouds at 2800 feet AGL
Weather: no significant weather observed at this time

METAR text: SBCT 251200Z VRB02KT CAVOK 23/19 Q1019
Conditions at: SBCT (CURITIBA/AFONSO , BR) observed 1200 UTC 25 March 2019
Temperature: 23.0°C (73°F)
Dewpoint: 19.0°C (66°F) [RH = 78%]
Pressure (altimeter): 30.09 inches Hg (1019.0 mb)
Winds: variable direction winds at 2 MPH (2 knots; 1.0 m/s)
Visibility: 6 or more miles (10+ km)
Ceiling: ceiling and visibility are OK
Clouds: unknown
Weather: no significant weather observed at this time

METAR text: SBCT 251100Z 21001KT 7000 NSC 19/19 Q1019
Conditions at: SBCT (CURITIBA/AFONSO , BR) observed 1100 UTC 25 March 2019
Temperature: 19.0°C (66°F)
Dewpoint: 19.0°C (66°F) [RH = 100%]
Pressure (altimeter): 30.09 inches Hg (1019.0 mb)
Winds: from the SSW (210 degrees) at 1 MPH (1 knots; 0.5 m/s)
Visibility: 4 miles ( 7 km)
Ceiling: at least 12,000 feet AGL
Clouds: sky clear below 12,000 feet AGL
Weather: no significant weather observed at this time

METAR text: SBCT 251046Z 00000KT 6000 NSC 19/19 Q1018
Conditions at: SBCT (CURITIBA/AFONSO , BR) observed 1046 UTC 25 March 2019
Temperature: 19.0°C (66°F)
Dewpoint: 19.0°C (66°F) [RH = 100%]
Pressure (altimeter): 30.06 inches Hg (1018.0 mb)
Winds: calm
Visibility: 4 miles ( 6 km)
Ceiling: at least 12,000 feet AGL
Clouds: sky clear below 12,000 feet AGL
Weather: no significant weather observed at this time

METAR text: SBCT 251000Z 00000KT 4000 BCFG BR FEW002 17/17 Q1018
Conditions at: SBCT (CURITIBA/AFONSO , BR) observed 1000 UTC 25 March 2019
Temperature: 17.0°C (63°F)
Dewpoint: 17.0°C (63°F) [RH = 100%]
Pressure (altimeter): 30.06 inches Hg (1018.0 mb)
Winds: calm
Visibility: 2.49 miles (4.01 km)
Ceiling: at least 12,000 feet AGL
Clouds: few clouds at 200 feet AGL
Weather: BCFG BR  (patches of fog, mist)

METAR text: SBCT 250935Z 01002KT 4000 1200SE R15/0600 R33/0600 BCFG BR SCT0 01 16/16 Q1018
Conditions at: SBCT (CURITIBA/AFONSO , BR) observed 0935 UTC 25 March 2019
Temperature: 16.0°C (61°F)
Dewpoint: 16.0°C (61°F) [RH = 100%]
Pressure (altimeter): 30.06 inches Hg (1018.0 mb)
Winds: from the N (10 degrees) at 2 MPH (2 knots; 1.0 m/s)
Visibility: 2.49 miles (4.01 km)
Ceiling: unknown
Clouds: missing
Weather: BCFG BR  (patches of fog, mist)

METAR text: SBCT 250900Z 03002KT 0700 R33/0600 R15/0800 FG BKN001 16/16 Q10 18
Conditions at: SBCT (CURITIBA/AFONSO , BR) observed 0900 UTC 25 March 2019
Temperature: 16.0°C (61°F)
Dewpoint: 16.0°C (61°F) [RH = 100%]
Pressure (altimeter): missing
Winds: from the NNE (30 degrees) at 2 MPH (2 knots; 1.0 m/s)
Visibility: 0.43 miles (0.69 km)
Ceiling: 100 feet AGL
Clouds: broken clouds at 100 feet AGL
Weather: FG  (fog)

METAR text: SBCT 250800Z 34002KT 0700 R33/0500 R15/0900 FG BKN001 17/17 Q1017
Conditions at: SBCT (CURITIBA/AFONSO , BR) observed 0800 UTC 25 March 2019
Temperature: 17.0°C (63°F)
Dewpoint: 17.0°C (63°F) [RH = 100%]
Pressure (altimeter): 30.03 inches Hg (1017.0 mb)
Winds: from the NNW (340 degrees) at 2 MPH (2 knots; 1.0 m/s)
Visibility: 0.43 miles (0.69 km)
Ceiling: 100 feet AGL
Clouds: broken clouds at 100 feet AGL
Weather: FG  (fog)

METAR text: SBCT 250700Z 00000KT 0500 R15/0500 R33/0500 FG BKN001 17/17 Q1017
Conditions at: SBCT (CURITIBA/AFONSO , BR) observed 0700 UTC 25 March 2019
Temperature: 17.0°C (63°F)
Dewpoint: 17.0°C (63°F) [RH = 100%]
Pressure (altimeter): 30.03 inches Hg (1017.0 mb)
Winds: calm
Visibility: 0.31 miles (0.50 km)
Ceiling: 100 feet AGL
Clouds: broken clouds at 100 feet AGL
Weather: FG  (fog)

METAR text: SBCT 250600Z 08003KT 5000 BCFG BR SCT005 SCT045 17/17 Q1017
Conditions at: SBCT (CURITIBA/AFONSO , BR) observed 0600 UTC 25 March 2019
Temperature: 17.0°C (63°F)
Dewpoint: 17.0°C (63°F) [RH = 100%]
Pressure (altimeter): 30.03 inches Hg (1017.0 mb)
Winds: from the E (80 degrees) at 3 MPH (3 knots; 1.5 m/s)
Visibility: 3 miles ( 5 km)
Ceiling: at least 12,000 feet AGL
Clouds: scattered clouds at 500 feet AGL
scattered clouds at 4500 feet AGL
Weather: BCFG BR  (patches of fog, mist)

METAR text: SBCT 250500Z 00000KT 5000 BR NSC 18/18 Q1018
Conditions at: SBCT (CURITIBA/AFONSO , BR) observed 0500 UTC 25 March 2019
Temperature: 18.0°C (64°F)
Dewpoint: 18.0°C (64°F) [RH = 100%]
Pressure (altimeter): 30.06 inches Hg (1018.0 mb)
Winds: calm
Visibility: 3 miles ( 5 km)
Ceiling: at least 12,000 feet AGL
Clouds: sky clear below 12,000 feet AGL
Weather: BR  (mist)

METAR text: SBCT 250400Z 12002KT CAVOK 18/18 Q1018
Conditions at: SBCT (CURITIBA/AFONSO , BR) observed 0400 UTC 25 March 2019
Temperature: 18.0°C (64°F)
Dewpoint: 18.0°C (64°F) [RH = 100%]
Pressure (altimeter): 30.06 inches Hg (1018.0 mb)
Winds: from the ESE (120 degrees) at 2 MPH (2 knots; 1.0 m/s)
Visibility: 6 or more miles (10+ km)
Ceiling: ceiling and visibility are OK
Clouds: unknown
Weather: no significant weather observed at this time

METAR text: SBCT 250300Z 00000KT CAVOK 19/19 Q1019
Conditions at: SBCT (CURITIBA/AFONSO , BR) observed 0300 UTC 25 March 2019
Temperature: 19.0°C (66°F)
Dewpoint: 19.0°C (66°F) [RH = 100%]
Pressure (altimeter): 30.09 inches Hg (1019.0 mb)
Winds: calm
Visibility: 6 or more miles (10+ km)
Ceiling: ceiling and visibility are OK
Clouds: unknown
Weather: no significant weather observed at this time

METAR text: SBCT 250200Z 10002KT 9999 SCT045 BKN083 20/19 Q1019
Conditions at: SBCT (CURITIBA/AFONSO , BR) observed 0200 UTC 25 March 2019
Temperature: 20.0°C (68°F)
Dewpoint: 19.0°C (66°F) [RH = 94%]
Pressure (altimeter): 30.09 inches Hg (1019.0 mb)
Winds: from the E (100 degrees) at 2 MPH (2 knots; 1.0 m/s)
Visibility: 6 or more miles (10+ km)
Ceiling: 8300 feet AGL
Clouds: scattered clouds at 4500 feet AGL
broken clouds at 8300 feet AGL
Weather: no significant weather observed at this time

METAR text: SBCT 250100Z 08003KT CAVOK 20/20 Q1019
Conditions at: SBCT (CURITIBA/AFONSO , BR) observed 0100 UTC 25 March 2019
Temperature: 20.0°C (68°F)
Dewpoint: 20.0°C (68°F) [RH = 100%]
Pressure (altimeter): 30.09 inches Hg (1019.0 mb)
Winds: from the E (80 degrees) at 3 MPH (3 knots; 1.5 m/s)
Visibility: 6 or more miles (10+ km)
Ceiling: ceiling and visibility are OK
Clouds: unknown
Weather: no significant weather observed at this time

METAR text: SBCT 250000Z 08003KT 9999 FEW035 BKN100 20/19 Q1019
Conditions at: SBCT (CURITIBA/AFONSO , BR) observed 0000 UTC 25 March 2019
Temperature: 20.0°C (68°F)
Dewpoint: 19.0°C (66°F) [RH = 94%]
Pressure (altimeter): 30.09 inches Hg (1019.0 mb)
Winds: from the E (80 degrees) at 3 MPH (3 knots; 1.5 m/s)
Visibility: 6 or more miles (10+ km)
Ceiling: 10000 feet AGL
Clouds: few clouds at 3500 feet AGL
broken clouds at 10000 feet AGL
Weather: no significant weather observed at this time

Forecast for: SBCT (CURITIBA/AFONSO , BR)
Text: TAF SBCT 260945Z 2612/2712 10007KT 9999 BKN011 TX23/2617Z TN17/2705Z
Forecast period: 1200 UTC 26 March 2019 to 1200 UTC 27 March 2019
Forecast type: FROM: standard forecast or significant change
Winds: from the E (100 degrees) at 8 MPH (7 knots; 3.6 m/s)
Visibility: 6 or more miles 10+ km)
Ceiling: 1100 feet AGL
Clouds: broken clouds at 1100 feet AGL
Weather: no significant weather forecast for this period
Text: BECMG 2612/2614 BKN020
Forecast period: 1200 to 1600 UTC 26 March 2019
Forecast type: BECOMING: Conditions expected to become as follows by 1400 UTC 26 March 2019
Winds: from the E (100 degrees) at 8 MPH (7 knots; 3.6 m/s)
Visibility: 6 or more miles 10+ km)
Ceiling: 2000 feet AGL
Clouds: broken clouds at 2000 feet AGL
Weather: no significant weather forecast for this period
Text: BECMG 2616/2618 SCT035
Forecast period: 1600 to 2100 UTC 26 March 2019
Forecast type: BECOMING: Conditions expected to become as follows by 1800 UTC 26 March 2019
Winds: from the E (100 degrees) at 8 MPH (7 knots; 3.6 m/s)
Visibility: 6 or more miles 10+ km)
Ceiling: at least 12,000 feet AGL
Clouds: scattered clouds at 3500 feet AGL
Weather: no significant weather forecast for this period
Text: BECMG 2621/2623 BKN012
Forecast period: 2100 UTC 26 March 2019 to 1200 UTC 27 March 2019
Forecast type: BECOMING: Conditions expected to become as follows by 2300 UTC 26 March 2019
Winds: from the E (100 degrees) at 8 MPH (7 knots; 3.6 m/s)
Visibility: 6 or more miles 10+ km)
Ceiling: 1200 feet AGL
Clouds: broken clouds at 1200 feet AGL
Weather: no significant weather forecast for this period
Text: PROB4 0 2707/2711 4000 BR BKN004 RMK PEB
Forecast period: 1200 UTC 26 March 2019 to 1200 UTC 27 March 2019
Forecast type: FROM: standard forecast or significant change
Visibility: missing
Ceiling: unknown
Clouds: missing
Weather: no significant weather forecast for this period